Weather at Gjakova Airport [CLOSED]

Public forecast

Using degrees Celsius for public forecast. Weather courtesy of forecast.io.

Closest aviation weather report (METAR) to Gjakova Airport

Closest report is Priština Adem Jashari International Airport, 28.2 nm (52.2 km) ENE. Retrieved 2022/07/01 00:30 UTC (20 minutes ago):

BKPR 010030Z 00000KT CAVOK 20/16 Q1016 NOSIG

Closest aviation forecast (TAF) to Gjakova Airport

Closest forecast is Kukës International Airport, 24.0 nm (44.4 km) S. Retrieved 2022-07-01 00:00 UTC (50 minutes ago):

TAF LAKU 302300Z 0100/0124 VRB04KT CAVOK TX34/0112Z TN20/0103Z TEMPO 0111/0117 FEW050CB PROB30 TEMPO 0112/0116 VRB15KT -TSRA SCT040CB BKN080